Airport View

Enter AWOS ICAO identifier for current METAR.

ex. KFNL

KPEA 200405Z AUTO 00000KT 7SM -RA OVC034 04/04 A3023 RMK AO2 T00420035

20 Mar 2019 04:05

Frequency: 118.875

Phone: 641-628-3459

Other Area AWOS: KOXV - KTNU - KGGI - KOOA

TAF AMD KOTM 192339Z 2000/2024 17006KT P6SM OVC060 FM200400 VRB05KT 5SM -RA SCT015 OVC025 FM200900 VRB06KT P6SM VCSH OVC010 FM201200 32006KT P6SM OVC010 FM201400 30008KT P6SM BKN025 FM202100 29013G21KT P6SM BKN035